Terminal Aerodrome Forecast
Issued by NWS

Home | Current Version | Previous Version | Text Only | Print | Product List | Glossary On
Versions: 1 2 3 4 5 6 7 8 9 10 11 12 13 14 15 16
141
FTPA31 PHFO 202345
TAFHLI
TAF
PHLI 202345Z 2100/2124 01015G22KT P6SM VCSH FEW025 BKN050
     FM210600 01010KT P6SM VCSH SCT025 BKN040
     FM212000 03015G22KT P6SM FEW025 BKN050=

USA.gov is the U.S. government's official web portal to all federal, state and local government web resources and services.